Pagina principale
METAR-TAF:

METAR-TAF

Aeroporti :

Aeroporto di Palermo-Punta Raisi

Palermo, Italia

latitudine: 38-11N, longitudine: 013-06E, altezza: 21 m

Osservazione

Il bollettino è stato emesso 15 minuti fa, alle 19:20 UTC
Vento 6 kt da nord-ovest
Temperature 16°C
Umidità 77%
Pressione 1010 hPa
Visibilità 10 km o più
nessuna nube inferiore a 1500 m e nessun cumulonembo

METAR: LICJ 191920Z 31006KT CAVOK 16/12 Q1010

Ora: 21:35 (19:35 UTC)

Previsione

Il bollettino è stato emesso 2 ore e 35 minuti fa, alle 17:00 UTC
Previsione valida dal 19 alle 18 UTC al 20 alle 18 UTC
Vento 14 kt da ovest
Visibilità 10 km o più
Nubi sparse ad un'altezza di 3000 ft
Evoluzione graduale
dal 19 alle 18 UTC al 19 alle 21 UTC
Vento 10 kt da sud/sud-ovest
Evoluzione graduale
dal 20 alle 10 UTC al 20 alle 12 UTC
Vento 12 kt da nord/nord-ovest

TAF: LICJ 191700Z 1918/2018 28014KT 9999 SCT030 BECMG 1918/1921 21010KT BECMG 2010/2012 34012KT

Osservazioni e previsioni meteorologiche di più di 4000 aeroporti (messaggi METAR e TAF).

Le stazioni disponibili sono rappresentate dai dischi gialli e rossi sulla carta.

Puntare il mouse per vedere il nome della stazione.

Clicca sopra per visualizzare le osservazioni e previsioni meteorologiche.

Per cambiare la mappa : fare clic sui pulsanti verdi con una croce nera per ingrandire, il pulsante verde con un trattino per diminuire, o sulla freccia verde per le mappe adiacenti.


METAR-TAF: